Time;durP1;ratioP1;P1;durP2;ratioP2;P2;SDS_P1;SDS_P2;PMS_P1;PMS_P2;Temp;Humidity;BMP_temperature;BMP_pressure;BME280_temperature;BME280_humidity;BME280_pressure;Samples;Min_cycle;Max_cycle;Signal;HPM_P1;HPM_P2
2021/12/28 00:00:19;;;;;;;5.43;3.65;;;;;;;12.12;57.47;99284.03;5030061;28;20132;-76
2021/12/28 00:02:46;;;;;;;5.45;3.67;;;;;;;12.12;57.46;99269.56;5029056;28;20053;-76
2021/12/28 00:05:14;;;;;;;5.82;3.70;;;;;;;12.12;57.34;99270.44;5029792;28;20487;-76
2021/12/28 00:07:41;;;;;;;6.20;4.15;;;;;;;12.12;57.60;99269.56;5011234;28;20049;-75
2021/12/28 00:10:11;;;;;;;7.25;3.70;;;;;;;12.14;57.67;99270.28;5030726;28;20073;-75
2021/12/28 00:12:39;;;;;;;5.43;3.67;;;;;;;12.13;58.04;99274.88;5019582;28;20111;-76
2021/12/28 00:15:29;;;;;;;5.40;3.50;;;;;;;12.13;57.76;99268.56;5029427;28;20061;-75
2021/12/28 00:17:59;;;;;;;5.55;3.35;;;;;;;12.13;57.89;99257.69;5026369;28;20065;-75
2021/12/28 00:20:27;;;;;;;5.35;3.15;;;;;;;12.12;57.91;99256.84;5030767;28;20053;-75
2021/12/28 00:22:54;;;;;;;4.53;2.75;;;;;;;12.14;57.66;99259.41;5028445;28;20072;-76
2021/12/28 00:25:21;;;;;;;5.30;3.35;;;;;;;12.12;57.54;99248.66;5028955;28;20049;-75
2021/12/28 00:27:49;;;;;;;5.45;3.40;;;;;;;12.12;57.68;99245.94;5028347;28;20049;-76
2021/12/28 00:30:16;;;;;;;5.07;3.00;;;;;;;12.12;57.49;99243.22;5029823;28;20111;-75
2021/12/28 00:32:43;;;;;;;5.55;3.38;;;;;;;12.13;57.75;99239.50;5028712;28;20103;-76
2021/12/28 00:35:10;;;;;;;4.55;3.33;;;;;;;12.13;57.45;99238.66;5011545;28;20464;-76
2021/12/28 00:37:36;;;;;;;4.93;3.13;;;;;;;12.11;57.85;99227.91;5035722;28;20076;-75
2021/12/28 00:40:04;;;;;;;5.80;3.60;;;;;;;12.11;57.67;99233.34;5027185;28;20107;-76
2021/12/28 00:42:32;;;;;;;5.65;3.25;;;;;;;12.09;57.62;99238.13;5029985;28;20455;-76
2021/12/28 00:44:58;;;;;;;4.97;2.78;;;;;;;12.09;57.43;99229.09;5028809;28;20050;-75
2021/12/28 00:47:25;;;;;;;5.10;3.05;;;;;;;12.08;57.50;99221.94;5028749;28;20472;-76
2021/12/28 00:49:52;;;;;;;5.47;2.95;;;;;;;12.07;57.48;99220.22;5029469;28;20053;-75
2021/12/28 00:52:18;;;;;;;4.55;2.50;;;;;;;12.06;57.76;99211.19;5028639;28;20045;-76
2021/12/28 00:54:45;;;;;;;5.05;2.60;;;;;;;12.07;57.53;99214.78;5028043;28;20042;-76
2021/12/28 00:57:11;;;;;;;5.70;2.30;;;;;;;12.06;57.64;99215.78;5020675;28;20506;-76
2021/12/28 00:59:38;;;;;;;5.47;2.83;;;;;;;12.06;57.92;99218.50;5028742;28;20449;-76
2021/12/28 01:02:05;;;;;;;4.38;2.50;;;;;;;12.06;57.64;99211.19;5028348;28;20128;-76
2021/12/28 01:04:32;;;;;;;3.78;2.30;;;;;;;12.07;57.83;99209.34;5027890;28;20053;-75
2021/12/28 01:06:59;;;;;;;5.13;2.40;;;;;;;12.07;57.54;99207.47;5028597;28;20042;-75
2021/12/28 01:09:30;;;;;;;4.82;2.60;;;;;;;12.06;57.49;99205.75;5028902;28;20087;-75
2021/12/28 01:12:00;;;;;;;5.18;2.50;;;;;;;12.08;57.61;99205.63;5014119;28;20096;-75
2021/12/28 01:14:29;;;;;;;4.72;2.65;;;;;;;12.08;57.70;99200.16;5027599;28;20049;-75
2021/12/28 01:16:56;;;;;;;4.22;2.60;;;;;;;12.07;57.57;99195.75;5021875;28;20053;-75
2021/12/28 01:19:23;;;;;;;4.63;2.20;;;;;;;12.08;57.54;99208.34;5022232;28;20053;-76
2021/12/28 01:21:49;;;;;;;5.15;2.22;;;;;;;12.07;57.77;99196.59;5027629;28;20049;-76
2021/12/28 01:24:18;;;;;;;5.00;2.38;;;;;;;12.09;57.78;99199.16;5027647;28;20081;-76
2021/12/28 01:26:46;;;;;;;3.80;2.20;;;;;;;12.09;57.59;99205.47;5028058;28;20132;-75
2021/12/28 01:29:13;;;;;;;4.72;2.25;;;;;;;12.09;57.87;99200.03;5028239;28;20053;-76
2021/12/28 01:31:41;;;;;;;4.60;2.13;;;;;;;12.09;57.68;99208.19;5027864;28;20041;-76
2021/12/28 01:34:09;;;;;;;5.88;2.17;;;;;;;12.11;57.74;99208.00;5027427;28;20129;-76
2021/12/28 01:36:35;;;;;;;3.92;1.88;;;;;;;12.11;57.75;99200.72;5027850;28;20075;-76
2021/12/28 01:39:04;;;;;;;5.05;2.25;;;;;;;12.12;57.58;99196.97;5028107;28;20107;-76
2021/12/28 01:41:32;;;;;;;4.82;2.28;;;;;;;12.12;57.67;99196.13;5028038;28;20483;-75
2021/12/28 01:44:02;;;;;;;4.57;2.30;;;;;;;12.14;57.66;99205.00;5027240;28;20096;-75
2021/12/28 01:46:29;;;;;;;4.88;2.05;;;;;;;12.12;57.67;99188.81;5028335;28;20149;-75
2021/12/28 01:48:56;;;;;;;5.97;2.17;;;;;;;12.13;57.77;99185.09;5027495;28;20106;-75
2021/12/28 01:51:24;;;;;;;5.47;2.00;;;;;;;12.16;57.90;99183.94;5028124;28;20125;-75
2021/12/28 01:53:53;;;;;;;4.53;2.22;;;;;;;12.16;57.86;99182.06;5027305;28;20107;-75
2021/12/28 01:56:27;;;;;;;4.65;2.35;;;;;;;12.18;57.74;99181.94;5027807;28;20041;-76
2021/12/28 01:58:54;;;;;;;4.53;1.95;;;;;;;12.16;57.71;99182.06;5027825;28;20052;-75
2021/12/28 02:01:23;;;;;;;4.55;1.90;;;;;;;12.18;57.59;99179.22;5028033;28;20045;-75
2021/12/28 02:03:50;;;;;;;4.50;1.85;;;;;;;12.18;57.72;99182.78;5027601;28;20045;-75
2021/12/28 02:06:17;;;;;;;4.50;2.10;;;;;;;12.18;57.69;99174.63;5027209;28;20045;-76
2021/12/28 02:08:44;;;;;;;4.00;1.85;;;;;;;12.19;57.85;99181.75;5026475;28;20045;-75
2021/12/28 02:11:13;;;;;;;5.25;2.00;;;;;;;12.20;57.69;99182.63;5028087;28;20154;-76
2021/12/28 02:13:40;;;;;;;7.57;2.03;;;;;;;12.20;57.57;99169.88;5027307;28;20037;-76
2021/12/28 02:16:13;;;;;;;3.30;1.70;;;;;;;12.20;57.93;99180.75;5010204;28;20704;-75
2021/12/28 02:18:39;;;;;;;4.25;1.67;;;;;;;12.22;57.90;99174.28;5027277;28;20045;-76
2021/12/28 02:21:07;;;;;;;6.68;1.88;;;;;;;12.24;57.58;99172.28;5028031;28;20046;-76
2021/12/28 02:23:35;;;;;;;4.30;1.80;;;;;;;12.24;57.63;99164.97;5027219;28;20496;-76
2021/12/28 02:26:04;;;;;;;4.55;1.80;;;;;;;12.25;57.88;99160.41;5027784;28;20049;-76
2021/12/28 02:28:31;;;;;;;5.03;1.70;;;;;;;12.26;57.41;99162.13;5029471;28;20095;-75
2021/12/28 02:30:58;;;;;;;5.22;1.75;;;;;;;12.25;57.90;99161.25;5031589;28;20492;-76
2021/12/28 02:33:26;;;;;;;4.88;1.58;;;;;;;12.27;57.71;99159.22;5030428;28;20064;-75
2021/12/28 02:35:57;;;;;;;5.30;2.10;;;;;;;12.28;57.64;99162.78;5027990;28;20131;-76
2021/12/28 02:38:24;;;;;;;4.65;1.60;;;;;;;12.27;57.72;99156.50;5029359;28;20461;-75
2021/12/28 02:40:50;;;;;;;6.75;1.80;;;;;;;12.29;57.72;99156.34;5031133;28;20049;-75
2021/12/28 02:43:18;;;;;;;7.10;2.10;;;;;;;12.30;57.79;99153.47;5028075;28;20112;-76
2021/12/28 02:45:57;;;;;;;5.85;2.13;;;;;;;12.31;57.71;99157.91;5023725;28;20076;-76
2021/12/28 02:48:26;;;;;;;6.70;2.00;;;;;;;12.31;57.39;99157.06;5046511;28;20049;-76
2021/12/28 02:50:59;;;;;;;6.68;1.85;;;;;;;12.33;57.72;99155.91;5030924;28;20057;-75
2021/12/28 02:53:26;;;;;;;5.35;1.88;;;;;;;12.31;57.46;99155.19;5012706;28;20144;-76
2021/12/28 02:55:55;;;;;;;7.00;1.98;;;;;;;12.34;57.63;99149.44;5030814;28;20076;-76
2021/12/28 02:58:45;;;;;;;6.93;2.53;;;;;;;12.35;58.09;99144.84;5026785;28;20041;-76
2021/12/28 03:01:25;;;;;;;5.50;1.90;;;;;;;12.35;57.77;99137.56;5029258;28;20128;-76
2021/12/28 03:03:56;;;;;;;5.70;1.85;;;;;;;12.35;57.95;99140.28;5026116;28;20092;-75
2021/12/28 03:06:23;;;;;;;7.25;2.08;;;;;;;12.35;57.81;99139.41;5026597;28;20413;-76
2021/12/28 03:08:55;;;;;;;7.68;2.00;;;;;;;12.38;57.49;99122.75;5030798;28;20057;-75
2021/12/28 03:11:24;;;;;;;6.70;2.07;;;;;;;12.37;58.13;99123.75;5030612;28;20065;-75
2021/12/28 03:13:54;;;;;;;4.03;1.70;;;;;;;12.38;57.85;99118.16;5029758;28;20124;-75
2021/12/28 03:16:22;;;;;;;4.60;2.03;;;;;;;12.39;57.81;99128.06;5025800;28;20667;-76
2021/12/28 03:18:50;;;;;;;7.10;2.00;;;;;;;12.39;57.76;99124.47;5030786;28;20043;-75
2021/12/28 03:21:18;;;;;;;7.22;2.00;;;;;;;12.41;57.84;99117.88;5030247;28;20049;-75
2021/12/28 03:23:46;;;;;;;6.55;2.03;;;;;;;12.42;57.80;99116.00;5030169;28;20400;-76
2021/12/28 03:26:14;;;;;;;5.70;2.33;;;;;;;12.46;57.92;99114.66;5030124;28;20081;-76
2021/12/28 03:28:43;;;;;;;7.43;2.30;;;;;;;12.46;58.14;99114.66;5029890;28;20041;-77
2021/12/28 03:31:15;;;;;;;8.50;2.75;;;;;;;12.48;57.88;99115.38;5028898;28;20408;-77
2021/12/28 03:33:45;;;;;;;6.70;2.05;;;;;;;12.47;57.92;99103.63;5027974;28;20049;-77
2021/12/28 03:36:14;;;;;;;6.70;2.20;;;;;;;12.47;57.81;99100.91;5012381;28;20069;-77
2021/12/28 03:38:41;;;;;;;6.70;2.25;;;;;;;12.49;58.04;99098.88;5029259;28;20050;-77
2021/12/28 03:41:09;;;;;;;7.63;2.30;;;;;;;12.51;58.13;99106.91;5029993;28;20136;-77
2021/12/28 03:43:38;;;;;;;9.57;2.30;;;;;;;12.51;57.82;99102.31;5029401;28;20081;-77
2021/12/28 03:46:07;;;;;;;6.65;2.08;;;;;;;12.51;58.10;99099.59;5031720;28;20099;-77
2021/12/28 03:48:34;;;;;;;8.20;2.47;;;;;;;12.51;57.89;99088.69;5018266;28;20053;-77
2021/12/28 03:51:02;;;;;;;8.40;2.20;;;;;;;12.53;58.07;99088.53;5030435;28;20475;-77
2021/12/28 03:53:29;;;;;;;9.30;2.10;;;;;;;12.54;58.09;99079.34;5028285;28;20052;-76
2021/12/28 03:55:55;;;;;;;6.25;2.13;;;;;;;12.56;58.40;99085.50;5029114;28;20046;-76
2021/12/28 03:58:22;;;;;;;7.45;2.20;;;;;;;12.56;58.20;99075.47;5029993;28;20045;-77
2021/12/28 04:00:49;;;;;;;7.03;2.20;;;;;;;12.60;58.19;99078.69;5028651;28;20562;-77
2021/12/28 04:03:17;;;;;;;7.72;2.00;;;;;;;12.58;57.90;99078.03;5011555;28;20038;-76
2021/12/28 04:05:45;;;;;;;7.70;2.03;;;;;;;12.61;57.81;99082.28;5028685;28;20542;-77
2021/12/28 04:08:15;;;;;;;6.47;2.10;;;;;;;12.64;58.29;99071.09;5029117;28;20045;-76
2021/12/28 04:10:54;;;;;;;8.00;2.05;;;;;;;12.62;58.35;99067.66;5029978;28;20045;-76
2021/12/28 04:13:23;;;;;;;7.38;1.95;;;;;;;12.64;58.28;99068.38;5028495;28;20087;-76
2021/12/28 04:15:50;;;;;;;9.93;2.10;;;;;;;12.65;58.22;99064.63;5029906;28;20053;-76
2021/12/28 04:18:18;;;;;;;7.88;2.17;;;;;;;12.67;58.12;99065.34;5037476;28;20053;-76
2021/12/28 04:20:45;;;;;;;9.10;2.10;;;;;;;12.68;58.04;99065.19;5029695;28;20053;-76
2021/12/28 04:23:12;;;;;;;5.88;1.95;;;;;;;12.70;58.43;99065.00;5029337;28;20069;-76
2021/12/28 04:25:40;;;;;;;8.75;2.20;;;;;;;12.72;58.43;99060.25;5028862;28;20172;-76
2021/12/28 04:28:06;;;;;;;5.63;1.70;;;;;;;12.73;58.12;99064.69;5029466;28;20132;-76
2021/12/28 04:30:33;;;;;;;6.15;2.00;;;;;;;12.74;57.98;99055.50;5029714;28;20101;-76
2021/12/28 04:33:00;;;;;;;7.50;2.55;;;;;;;12.75;58.26;99052.63;5028512;28;20069;-76
2021/12/28 04:35:26;;;;;;;7.80;2.10;;;;;;;12.76;58.44;99056.22;5029093;28;20048;-76
2021/12/28 04:37:53;;;;;;;7.03;2.55;;;;;;;12.76;58.40;99050.75;5012164;28;20053;-76
2021/12/28 04:40:19;;;;;;;7.82;1.75;;;;;;;12.76;58.30;99048.91;5029311;28;20049;-76
2021/12/28 04:42:46;;;;;;;8.68;2.08;;;;;;;12.77;58.00;99047.00;5028391;28;20492;-77
2021/12/28 04:45:15;;;;;;;5.22;1.67;;;;;;;12.79;58.12;99055.88;5028688;28;20056;-76
2021/12/28 04:47:42;;;;;;;5.55;2.03;;;;;;;12.80;58.21;99050.25;5028387;28;20046;-76
2021/12/28 04:50:10;;;;;;;7.18;2.03;;;;;;;12.81;58.30;99049.25;5029652;28;20134;-76
2021/12/28 04:52:39;;;;;;;6.65;1.80;;;;;;;12.82;58.36;99050.97;5027954;28;20472;-76
2021/12/28 04:55:17;;;;;;;4.57;1.90;;;;;;;12.85;58.38;99044.31;5028712;28;20053;-77
2021/12/28 04:57:45;;;;;;;6.63;2.00;;;;;;;12.83;58.27;99033.63;5028029;28;20064;-75
2021/12/28 05:00:17;;;;;;;6.50;1.85;;;;;;;12.83;57.89;99039.06;5029109;28;20776;-76
2021/12/28 05:02:44;;;;;;;5.65;1.80;;;;;;;12.84;58.17;99034.47;5028835;28;20038;-76
2021/12/28 05:05:12;;;;;;;5.70;1.95;;;;;;;12.85;58.31;99041.59;5043277;28;20046;-76
2021/12/28 05:07:39;;;;;;;5.22;1.75;;;;;;;12.86;58.26;99035.13;5012900;28;20076;-75
2021/12/28 05:10:07;;;;;;;7.82;2.17;;;;;;;12.87;58.50;99035.00;5029039;28;20081;-75
2021/12/28 05:12:34;;;;;;;5.18;1.85;;;;;;;12.88;58.35;99024.94;5010689;28;20065;-76
2021/12/28 05:15:01;;;;;;;7.32;2.45;;;;;;;12.89;58.21;99030.25;5028174;28;20377;-75
2021/12/28 05:17:28;;;;;;;5.13;1.80;;;;;;;12.90;58.27;99028.38;5026743;28;20396;-76
2021/12/28 05:19:55;;;;;;;7.55;2.20;;;;;;;12.90;58.58;99028.38;5011407;28;20077;-75
2021/12/28 05:22:21;;;;;;;7.05;2.17;;;;;;;12.91;58.36;99022.75;5027820;28;20126;-75
2021/12/28 05:24:48;;;;;;;7.68;1.88;;;;;;;12.90;58.46;99014.75;5028456;28;20080;-75
2021/12/28 05:27:15;;;;;;;7.60;2.20;;;;;;;12.93;58.06;99017.13;5027785;28;20195;-75
2021/12/28 05:29:42;;;;;;;6.15;2.15;;;;;;;12.91;58.12;99022.75;5029243;28;20049;-75
2021/12/28 05:32:08;;;;;;;5.68;2.00;;;;;;;12.93;58.42;99014.41;5043159;28;20073;-76
2021/12/28 05:34:35;;;;;;;9.02;2.45;;;;;;;12.93;58.31;99017.13;5027116;28;20049;-75
2021/12/28 05:37:01;;;;;;;9.15;2.30;;;;;;;12.93;58.46;99017.97;5023245;28;20126;-75
2021/12/28 05:39:28;;;;;;;8.82;2.45;;;;;;;12.92;58.28;99002.69;5027014;28;20531;-75
2021/12/28 05:41:55;;;;;;;8.98;3.00;;;;;;;12.91;58.31;99014.59;5010940;28;20042;-75
2021/12/28 05:44:23;;;;;;;8.52;2.50;;;;;;;12.91;58.47;99005.56;5018750;28;20546;-75
2021/12/28 05:46:51;;;;;;;6.13;2.03;;;;;;;12.91;58.14;99008.28;5028269;28;20484;-75
2021/12/28 05:49:18;;;;;;;4.68;2.00;;;;;;;12.90;58.55;99001.13;5028544;28;20413;-75
2021/12/28 05:51:45;;;;;;;6.18;2.42;;;;;;;12.91;58.67;98995.53;5028151;28;20051;-75
2021/12/28 05:54:12;;;;;;;6.50;2.33;;;;;;;12.91;58.20;98997.41;5026163;28;20099;-75
2021/12/28 05:56:39;;;;;;;8.20;2.67;;;;;;;12.92;58.61;98994.53;5028023;28;20076;-75
2021/12/28 05:59:05;;;;;;;6.22;2.40;;;;;;;12.93;58.45;98992.63;5028323;28;20080;-74
2021/12/28 06:01:33;;;;;;;5.70;2.47;;;;;;;12.91;58.29;98995.53;5031119;28;20443;-75
2021/12/28 06:04:00;;;;;;;7.68;3.03;;;;;;;12.91;58.39;99000.13;5031281;28;20512;-75
2021/12/28 06:06:27;;;;;;;5.97;2.90;;;;;;;12.91;58.82;98990.09;5031074;28;20496;-75
2021/12/28 06:08:57;;;;;;;7.38;2.67;;;;;;;12.93;58.47;98992.63;5037425;28;20053;-75
2021/12/28 06:11:24;;;;;;;7.53;2.80;;;;;;;12.92;58.50;98993.66;5012690;28;20045;-76
2021/12/28 06:13:50;;;;;;;8.23;2.70;;;;;;;12.95;58.64;98987.88;5030569;28;20122;-75
2021/12/28 06:16:17;;;;;;;9.00;3.05;;;;;;;12.95;58.65;98993.31;5023510;28;20501;-75
2021/12/28 06:18:44;;;;;;;6.60;2.65;;;;;;;12.96;58.38;99001.34;5011703;28;20041;-75
2021/12/28 06:21:10;;;;;;;5.88;2.80;;;;;;;12.98;58.54;98995.72;5031825;28;20045;-75
2021/12/28 06:23:37;;;;;;;8.43;2.78;;;;;;;12.99;58.39;98996.59;5029936;28;21212;-75
2021/12/28 06:26:04;;;;;;;5.72;2.55;;;;;;;12.99;58.46;98989.25;5031553;28;20160;-75
2021/12/28 06:28:31;;;;;;;6.40;2.65;;;;;;;13.01;58.18;98992.69;5029697;28;20045;-75
2021/12/28 06:30:58;;;;;;;8.68;2.90;;;;;;;13.03;58.63;98995.22;5031679;28;20138;-75
2021/12/28 06:33:25;;;;;;;7.05;2.95;;;;;;;13.02;58.55;98991.63;5029470;28;20267;-75
2021/12/28 06:35:54;;;;;;;7.60;2.63;;;;;;;13.02;58.23;98990.78;5030958;28;20413;-75
2021/12/28 06:38:21;;;;;;;6.18;2.78;;;;;;;13.02;58.33;98983.47;5026768;28;20131;-75
2021/12/28 06:40:47;;;;;;;6.13;3.05;;;;;;;13.02;58.46;98979.88;5031831;28;20053;-76
2021/12/28 06:43:14;;;;;;;8.07;2.60;;;;;;;13.03;58.65;98987.91;5019515;28;20072;-75
2021/12/28 06:45:41;;;;;;;7.72;3.03;;;;;;;13.02;58.75;98991.63;5029970;28;20115;-76
2021/12/28 06:48:08;;;;;;;5.68;2.33;;;;;;;13.04;58.61;98986.88;5031300;28;20488;-75
2021/12/28 06:50:35;;;;;;;5.47;2.85;;;;;;;13.06;58.82;98992.19;5013982;28;20049;-75
2021/12/28 06:53:02;;;;;;;4.60;2.55;;;;;;;13.05;58.56;98985.03;5030678;28;20138;-75
2021/12/28 06:55:29;;;;;;;4.68;2.22;;;;;;;13.04;58.52;98986.88;5030916;28;20076;-76
2021/12/28 06:57:56;;;;;;;6.68;2.25;;;;;;;13.06;58.75;98997.63;5030853;28;20107;-75
2021/12/28 07:00:23;;;;;;;5.32;2.50;;;;;;;13.07;58.81;98993.91;5031413;28;20111;-76
2021/12/28 07:02:50;;;;;;;4.75;2.30;;;;;;;13.08;58.46;98998.31;5030571;28;20422;-75
2021/12/28 07:05:17;;;;;;;5.78;2.28;;;;;;;13.08;58.39;99001.06;5030703;28;20119;-75
2021/12/28 07:07:43;;;;;;;5.95;2.67;;;;;;;13.08;58.55;98993.72;5029722;28;20049;-76
2021/12/28 07:10:10;;;;;;;4.65;2.10;;;;;;;13.10;58.55;98988.94;5033566;28;20185;-75
2021/12/28 07:12:37;;;;;;;5.63;2.58;;;;;;;13.11;58.73;99004.28;5031006;28;20301;-75
2021/12/28 07:15:05;;;;;;;7.75;2.65;;;;;;;13.12;58.49;99008.72;5023997;28;20048;-75
2021/12/28 07:17:32;;;;;;;5.43;2.30;;;;;;;13.11;58.89;99003.44;5030243;28;20045;-75
2021/12/28 07:19:59;;;;;;;7.75;2.50;;;;;;;13.11;58.30;98998.84;5030605;28;20095;-75
2021/12/28 07:22:25;;;;;;;4.22;2.30;;;;;;;13.12;58.51;98994.25;5030111;28;20115;-75
2021/12/28 07:24:52;;;;;;;4.28;2.15;;;;;;;13.11;58.88;98996.09;5030169;28;20134;-75
2021/12/28 07:27:18;;;;;;;5.53;2.17;;;;;;;13.12;58.41;98986.06;5029999;28;20444;-75
2021/12/28 07:29:45;;;;;;;5.68;2.15;;;;;;;13.13;58.66;98982.34;5016479;28;20135;-75
2021/12/28 07:32:12;;;;;;;4.30;2.00;;;;;;;13.14;58.64;98984.94;5030411;28;20081;-75
2021/12/28 07:34:38;;;;;;;4.80;2.28;;;;;;;13.15;58.41;98980.34;5030235;28;20050;-75
2021/12/28 07:37:05;;;;;;;5.45;2.47;;;;;;;13.16;58.42;98982.03;5011667;28;20099;-75
2021/12/28 07:39:31;;;;;;;6.38;2.20;;;;;;;13.17;58.35;98975.59;5030344;28;20136;-75
2021/12/28 07:41:58;;;;;;;6.80;2.10;;;;;;;13.16;58.22;98962.97;5030362;28;20046;-75
2021/12/28 07:44:25;;;;;;;6.88;2.25;;;;;;;13.17;58.71;98956.50;5025307;28;20045;-75
2021/12/28 07:46:52;;;;;;;4.47;1.90;;;;;;;13.17;58.56;98956.50;5013060;28;20053;-75
2021/12/28 07:49:18;;;;;;;5.70;2.17;;;;;;;13.16;58.37;98941.19;5029626;28;20520;-75
2021/12/28 07:51:46;;;;;;;4.60;1.73;;;;;;;13.17;58.44;98951.91;5030953;28;20048;-75
2021/12/28 07:54:13;;;;;;;3.97;2.00;;;;;;;13.17;58.68;98960.09;5029297;28;20046;-75
2021/12/28 07:56:42;;;;;;;4.20;1.88;;;;;;;13.19;58.63;98963.47;5032725;28;20041;-75
2021/12/28 07:59:10;;;;;;;4.70;1.60;;;;;;;13.17;58.15;98976.44;5041063;28;20067;-75
2021/12/28 08:01:37;;;;;;;3.55;1.60;;;;;;;13.18;58.45;98971.81;5033017;28;20088;-75
2021/12/28 08:04:05;;;;;;;5.28;2.00;;;;;;;13.18;58.48;98982.72;5037744;28;20049;-75
2021/12/28 08:06:32;;;;;;;4.85;2.38;;;;;;;13.19;58.50;98992.59;5030260;28;20100;-75
2021/12/28 08:08:58;;;;;;;4.38;1.80;;;;;;;13.17;58.51;98990.06;5029735;28;20558;-75
2021/12/28 08:11:25;;;;;;;4.20;1.88;;;;;;;13.19;58.64;98992.59;5028182;28;20129;-75
2021/12/28 08:13:52;;;;;;;4.20;1.77;;;;;;;13.19;58.42;98998.03;5029316;28;20049;-75
2021/12/28 08:16:19;;;;;;;3.85;1.85;;;;;;;13.20;58.56;99005.22;5028691;28;20092;-75
2021/12/28 08:18:46;;;;;;;4.93;1.75;;;;;;;13.19;58.59;99001.63;5028876;28;20131;-75
2021/12/28 08:21:33;;;;;;;5.10;2.10;;;;;;;13.20;58.33;99007.94;5028168;28;20132;-76
2021/12/28 08:24:00;;;;;;;5.75;2.10;;;;;;;13.20;58.34;99014.25;5026226;28;20107;-75
2021/12/28 08:26:27;;;;;;;5.35;1.73;;;;;;;13.21;58.69;99017.81;5028703;28;20397;-75
2021/12/28 08:28:53;;;;;;;5.22;2.30;;;;;;;13.23;58.37;99016.66;5024594;28;20084;-75
2021/12/28 08:31:25;;;;;;;5.63;1.90;;;;;;;13.24;58.56;99009.31;5028808;28;20048;-75
2021/12/28 08:33:51;;;;;;;4.90;1.73;;;;;;;13.25;58.53;99006.44;5029909;28;20049;-75
2021/12/28 08:36:18;;;;;;;4.45;1.98;;;;;;;13.26;58.52;98994.50;5027878;28;20081;-75
2021/12/28 08:38:45;;;;;;;4.13;1.88;;;;;;;13.28;58.24;99000.63;5028548;28;20053;-75
2021/12/28 08:41:12;;;;;;;3.72;2.08;;;;;;;13.30;58.60;99003.22;5028762;28;20045;-75
2021/12/28 08:43:46;;;;;;;3.83;1.95;;;;;;;13.30;58.30;98987.72;5026443;28;20042;-75
2021/12/28 08:46:13;;;;;;;5.22;2.00;;;;;;;13.30;58.45;98990.44;5008655;28;20049;-74
2021/12/28 08:48:40;;;;;;;4.35;1.92;;;;;;;13.32;58.34;98998.44;5028683;28;20069;-74
2021/12/28 08:51:07;;;;;;;4.72;2.05;;;;;;;13.33;58.20;98994.72;5029004;28;20107;-75
2021/12/28 08:53:34;;;;;;;4.13;1.95;;;;;;;13.32;58.60;98984.81;5029762;28;20496;-74
2021/12/28 08:56:00;;;;;;;5.43;1.77;;;;;;;13.33;58.52;98992.00;5028176;28;20045;-75
2021/12/28 08:58:27;;;;;;;3.92;1.90;;;;;;;13.33;58.35;99000.16;5025342;28;20088;-74
2021/12/28 09:00:53;;;;;;;4.60;1.70;;;;;;;13.34;58.39;98996.44;5026735;28;20132;-74
2021/12/28 09:03:20;;;;;;;3.97;1.63;;;;;;;13.34;58.38;98994.53;5011613;28;20136;-74
2021/12/28 09:05:47;;;;;;;5.57;1.90;;;;;;;13.34;58.43;98989.06;5028145;28;20045;-75
2021/12/28 09:08:17;;;;;;;5.18;2.03;;;;;;;13.36;58.48;98993.50;5030290;28;20041;-75
2021/12/28 09:10:44;;;;;;;3.75;1.48;;;;;;;13.37;58.33;98995.22;5027731;28;20128;-75
2021/12/28 09:13:13;;;;;;;4.68;1.65;;;;;;;13.39;58.52;98985.88;5027102;28;20097;-75
2021/12/28 09:15:43;;;;;;;3.28;1.70;;;;;;;13.41;58.33;98988.44;5022036;28;20115;-76
2021/12/28 09:18:09;;;;;;;5.70;1.88;;;;;;;13.42;58.43;98981.97;5031361;28;20497;-76
2021/12/28 09:20:36;;;;;;;4.40;1.70;;;;;;;13.41;58.17;98981.09;5034729;28;20489;-76
2021/12/28 09:23:10;;;;;;;6.30;1.90;;;;;;;13.44;58.45;98975.31;5026291;28;20068;-76
2021/12/28 09:25:38;;;;;;;4.97;1.73;;;;;;;13.44;58.77;98980.75;5028367;28;20099;-75
2021/12/28 09:28:08;;;;;;;4.53;2.08;;;;;;;13.44;58.60;98980.75;5027417;28;20099;-76
2021/12/28 09:30:37;;;;;;;5.65;1.90;;;;;;;13.46;58.41;98986.91;5029654;28;20060;-76
2021/12/28 09:33:04;;;;;;;3.53;1.58;;;;;;;13.46;58.61;98976.00;5019030;28;20431;-76
2021/12/28 09:35:31;;;;;;;4.03;2.05;;;;;;;13.48;58.43;98981.28;5027944;28;20037;-76
2021/12/28 09:37:57;;;;;;;4.72;2.28;;;;;;;13.48;58.44;98967.66;5029969;28;20115;-76
2021/12/28 09:40:31;;;;;;;4.53;1.50;;;;;;;13.50;58.80;98966.47;5033326;28;20053;-75
2021/12/28 09:42:58;;;;;;;3.90;1.70;;;;;;;13.50;58.59;98969.22;5031107;28;20068;-76
2021/12/28 09:45:27;;;;;;;4.45;1.77;;;;;;;13.52;58.54;98963.56;5030141;28;20053;-75
2021/12/28 09:47:54;;;;;;;3.28;1.65;;;;;;;13.52;58.56;98960.84;5031124;28;20117;-75
2021/12/28 09:50:21;;;;;;;3.78;1.67;;;;;;;13.54;58.69;98958.81;5028875;28;20049;-75
2021/12/28 09:52:50;;;;;;;3.92;1.70;;;;;;;13.56;58.73;98964.94;5030916;28;20045;-75
2021/12/28 09:55:20;;;;;;;4.25;2.10;;;;;;;13.56;58.48;98962.22;5032467;28;20396;-75
2021/12/28 09:57:47;;;;;;;4.65;1.88;;;;;;;13.56;58.66;98968.53;5043937;28;20390;-76
2021/12/28 10:00:15;;;;;;;3.58;1.52;;;;;;;13.58;58.52;98971.94;5025851;28;20080;-76
2021/12/28 10:03:02;;;;;;;3.47;1.60;;;;;;;13.58;58.74;98960.19;5031531;28;20128;-76
2021/12/28 10:05:30;;;;;;;3.63;1.65;;;;;;;13.59;58.63;98957.28;5031258;28;20124;-76
2021/12/28 10:07:58;;;;;;;3.20;1.45;;;;;;;13.62;58.59;98954.22;5030305;28;20499;-76
2021/12/28 10:10:42;;;;;;;3.45;1.50;;;;;;;13.63;58.67;98950.47;5031893;28;20049;-76
2021/12/28 10:13:16;;;;;;;4.85;2.35;;;;;;;13.63;58.75;98955.06;5032668;28;20053;-75
2021/12/28 10:15:45;;;;;;;3.40;1.70;;;;;;;13.64;58.60;98954.06;5008884;28;20046;-76
2021/12/28 10:18:12;;;;;;;3.83;1.80;;;;;;;13.64;58.63;98945.88;5031272;28;20423;-76
2021/12/28 10:21:03;;;;;;;3.40;1.42;;;;;;;13.63;58.55;98939.56;5032160;28;20481;-76
2021/12/28 10:23:32;;;;;;;3.45;1.63;;;;;;;13.64;58.74;98948.59;5034144;28;20111;-76
2021/12/28 10:26:04;;;;;;;3.08;1.50;;;;;;;13.68;58.62;98933.59;5030706;28;20103;-75
2021/12/28 10:28:34;;;;;;;3.22;1.60;;;;;;;13.66;58.28;98936.50;5025673;28;20050;-75
2021/12/28 10:31:10;;;;;;;2.70;1.50;;;;;;;13.69;58.49;98935.31;5031269;28;20119;-76
2021/12/28 10:33:38;;;;;;;4.53;1.75;;;;;;;13.68;58.63;98934.44;5030669;28;20041;-76
2021/12/28 10:36:13;;;;;;;3.08;1.27;;;;;;;13.71;58.42;98925.09;5030065;28;20389;-76
2021/12/28 10:38:48;;;;;;;3.20;1.48;;;;;;;13.72;58.70;98913.16;5032410;28;20041;-75
2021/12/28 10:41:21;;;;;;;3.92;1.52;;;;;;;13.73;58.50;98912.13;5026654;28;20518;-75
2021/12/28 10:43:50;;;;;;;2.88;1.40;;;;;;;13.72;58.37;98910.44;5031180;28;20077;-75
2021/12/28 10:46:26;;;;;;;2.90;1.40;;;;;;;13.73;58.80;98898.50;5029426;28;20048;-77
2021/12/28 10:49:00;;;;;;;5.07;1.90;;;;;;;13.71;58.98;98895.94;5014992;28;20053;-75
2021/12/28 10:51:31;;;;;;;2.65;1.50;;;;;;;13.73;58.78;98884.88;5029685;28;20056;-75
2021/12/28 10:54:12;;;;;;;3.55;1.80;;;;;;;13.77;58.96;98879.91;5030677;28;20057;-75
2021/12/28 10:56:53;;;;;;;5.03;1.77;;;;;;;13.75;58.67;98888.28;5013776;28;20041;-75
2021/12/28 10:59:25;;;;;;;3.40;1.67;;;;;;;13.78;58.97;98884.34;5030846;28;20050;-75
2021/12/28 11:01:52;;;;;;;3.70;1.63;;;;;;;13.77;58.52;98885.34;5031100;28;20073;-75
2021/12/28 11:04:34;;;;;;;3.95;1.80;;;;;;;13.80;58.79;98874.13;5012754;28;20076;-75
2021/12/28 11:07:04;;;;;;;2.22;1.27;;;;;;;13.81;58.81;98873.09;5030663;28;20148;-75
2021/12/28 11:09:31;;;;;;;3.25;1.48;;;;;;;13.82;58.74;98861.16;5033191;28;20547;-76
2021/12/28 11:11:58;;;;;;;2.88;1.42;;;;;;;13.82;58.83;98858.44;5030725;28;20053;-76
2021/12/28 11:14:30;;;;;;;2.67;1.27;;;;;;;13.85;58.55;98858.94;5030140;28;20049;-75
2021/12/28 11:16:59;;;;;;;2.20;1.08;;;;;;;13.86;58.65;98857.91;5013254;28;20416;-75
2021/12/28 11:19:32;;;;;;;2.63;1.33;;;;;;;13.88;58.83;98849.56;5030976;28;20524;-74
2021/12/28 11:22:03;;;;;;;2.92;1.30;;;;;;;13.87;58.97;98845.13;5027613;28;20874;-76
2021/12/28 11:24:34;;;;;;;2.22;1.20;;;;;;;13.88;58.50;98835.91;5030153;28;20080;-76
2021/12/28 11:27:03;;;;;;;2.35;1.40;;;;;;;13.89;58.46;98826.72;5029618;28;20135;-76
2021/12/28 11:29:50;;;;;;;2.60;1.20;;;;;;;13.88;58.81;98825.88;5030629;28;20225;-76
2021/12/28 11:32:17;;;;;;;2.75;1.30;;;;;;;13.90;58.59;98823.81;5029839;28;20069;-76
2021/12/28 11:34:45;;;;;;;2.65;1.38;;;;;;;13.91;58.28;98821.94;5023302;28;20120;-76
2021/12/28 11:37:20;;;;;;;2.65;1.27;;;;;;;13.94;58.63;98811.53;5027621;28;21853;-76
2021/12/28 11:39:50;;;;;;;2.85;1.50;;;;;;;13.94;58.79;98816.97;5045833;28;20045;-76